createdAt,value
2023-04-14T00:04:31.196Z,92130.92
2023-04-14T00:09:38.706Z,92126.22
2023-04-14T00:14:46.012Z,92122.28
2023-04-14T00:19:53.190Z,92118.09
2023-04-14T00:25:00.199Z,92123.83
2023-04-14T00:30:08.939Z,92130.91
2023-04-14T00:35:15.873Z,92131.19
2023-04-14T00:40:22.670Z,92134.86
2023-04-14T00:45:29.577Z,92136.70
2023-04-14T00:50:36.905Z,92136.16
2023-04-14T00:55:45.463Z,92127.02
2023-04-14T01:00:53.968Z,92117.30
2023-04-14T01:06:01.386Z,92119.66
2023-04-14T01:11:34.776Z,92104.45
2023-04-14T01:16:45.753Z,92091.37
2023-04-14T01:21:56.729Z,92080.36
2023-04-14T01:27:36.970Z,92081.41
2023-04-14T01:32:47.136Z,92075.88
2023-04-14T01:37:58.221Z,92067.48
2023-04-14T01:43:09.861Z,92046.03
2023-04-14T01:48:17.809Z,92053.09
2023-04-14T01:53:26.431Z,92065.14
2023-04-14T01:58:34.585Z,92069.59
2023-04-14T02:03:43.421Z,92044.20
2023-04-14T02:08:51.249Z,92028.22
2023-04-14T02:14:01.073Z,92031.86
2023-04-14T02:19:07.887Z,92015.88
2023-04-14T02:24:14.913Z,92003.33
2023-04-14T02:29:23.997Z,92001.98
2023-04-14T02:34:37.496Z,91997.03
2023-04-14T02:39:46.528Z,92005.44
2023-04-14T02:44:57.584Z,92009.34
2023-04-14T02:50:07.377Z,92011.43
2023-04-14T02:55:15.339Z,92020.36
2023-04-14T03:00:49.466Z,92017.42
2023-04-14T03:05:56.131Z,92010.36
2023-04-14T03:11:04.378Z,92009.34
2023-04-14T03:16:12.530Z,92005.09
2023-04-14T03:21:20.292Z,92007.98
2023-04-14T03:26:29.327Z,92001.39
2023-04-14T03:31:38.094Z,92008.81
2023-04-14T03:36:46.678Z,92011.45
2023-04-14T03:41:54.977Z,91998.07
2023-04-14T03:47:03.522Z,91990.20
2023-04-14T03:52:13.477Z,91991.72
2023-04-14T03:57:23.486Z,91978.15
2023-04-14T04:02:31.800Z,91968.91
2023-04-14T04:07:40.939Z,91961.81
2023-04-14T04:12:50.251Z,91961.52
2023-04-14T04:17:58.905Z,91954.48
2023-04-14T04:23:08.002Z,91953.94
2023-04-14T04:28:14.861Z,91952.95
2023-04-14T04:33:23.411Z,91954.00
2023-04-14T04:38:30.132Z,91949.80
2023-04-14T04:43:36.961Z,91950.81
2023-04-14T04:48:44.131Z,91956.69
2023-04-14T04:53:50.777Z,91953.66
2023-04-14T04:58:57.849Z,91979.65
2023-04-14T05:04:04.512Z,91976.70
2023-04-14T05:09:11.207Z,91989.08
2023-04-14T05:14:17.953Z,91980.94
2023-04-14T05:19:24.691Z,91989.87
2023-04-14T05:24:31.443Z,91991.99
2023-04-14T05:29:38.152Z,91993.05
2023-04-14T05:34:44.877Z,92004.06
2023-04-14T05:39:51.559Z,92001.16
2023-04-14T05:44:58.440Z,92004.05
2023-04-14T05:50:05.677Z,92004.08
2023-04-14T05:55:13.047Z,91995.66
2023-04-14T06:00:20.760Z,91991.25
2023-04-14T06:05:28.136Z,91991.47
2023-04-14T06:10:36.164Z,92001.66
2023-04-14T06:15:43.912Z,91992.45
2023-04-14T06:20:51.238Z,91972.47
2023-04-14T06:25:59.087Z,92007.86
2023-04-14T06:31:06.379Z,92010.50
2023-04-14T06:36:14.205Z,92006.03
2023-04-14T06:41:21.901Z,92012.05
2023-04-14T06:46:28.935Z,91991.33
2023-04-14T06:51:36.707Z,91970.95
2023-04-14T06:56:43.675Z,91964.97
2023-04-14T07:01:51.078Z,91951.98
2023-04-14T07:07:02.745Z,91943.02
2023-04-14T07:12:18.267Z,91956.92
2023-04-14T07:17:25.288Z,91949.19
2023-04-14T07:22:32.108Z,91951.45
2023-04-14T07:27:43.236Z,91947.25
2023-04-14T07:32:48.259Z,91953.16
2023-04-14T07:37:56.330Z,91938.80
2023-04-14T07:43:03.306Z,91912.00
2023-04-14T07:48:10.156Z,91932.08
2023-04-14T07:53:17.232Z,91942.33
2023-04-14T07:58:26.174Z,91949.14
2023-04-14T08:03:32.746Z,91951.13
2023-04-14T08:08:40.352Z,91948.34
2023-04-14T08:13:53.203Z,91960.14
2023-04-14T08:19:00.219Z,91975.84
2023-04-14T08:24:07.560Z,91986.88
2023-04-14T08:29:14.414Z,91989.51
2023-04-14T08:34:28.321Z,91990.80
2023-04-14T08:39:30.841Z,91993.53
2023-04-14T08:45:41.673Z,91997.68
2023-04-14T08:51:13.669Z,91978.77
2023-04-14T08:56:23.234Z,91988.73
2023-04-14T09:01:35.153Z,91960.17
2023-04-14T09:06:41.019Z,91979.94
2023-04-14T09:11:48.744Z,91980.36
2023-04-14T09:16:56.618Z,91975.39
2023-04-14T09:22:03.432Z,91988.63
2023-04-14T09:27:10.274Z,91985.76
2023-04-14T09:32:17.924Z,91990.63
2023-04-14T09:37:24.946Z,91986.47
2023-04-14T09:42:43.217Z,91992.45
2023-04-14T09:47:50.377Z,91995.06
2023-04-14T09:52:57.986Z,92006.00
2023-04-14T09:58:04.994Z,92004.58
2023-04-14T10:03:12.069Z,92010.14
2023-04-14T10:08:21.157Z,92009.53
2023-04-14T10:13:28.160Z,92008.77
2023-04-14T10:18:35.647Z,92012.08
2023-04-14T10:23:43.940Z,92018.88
2023-04-14T10:28:54.593Z,92025.92
2023-04-14T10:34:11.367Z,92029.33
2023-04-14T10:39:27.998Z,92036.33
2023-04-14T10:44:36.896Z,92049.45
2023-04-14T10:49:44.981Z,92053.20
2023-04-14T10:55:05.276Z,92056.74
2023-04-14T11:00:28.294Z,92054.12
2023-04-14T11:05:36.399Z,92055.35
2023-04-14T11:10:45.502Z,92046.12
2023-04-14T11:16:07.460Z,92061.82
2023-04-14T11:21:17.201Z,92044.05
2023-04-14T11:26:25.926Z,92044.91
2023-04-14T11:31:37.240Z,92043.10
2023-04-14T11:36:44.637Z,92040.46
2023-04-14T11:41:53.165Z,92040.11
2023-04-14T11:46:59.952Z,92035.70
2023-04-14T11:52:10.202Z,92033.50
2023-04-14T11:57:18.172Z,92030.05
2023-04-14T12:02:24.964Z,92024.95
2023-04-14T12:07:32.353Z,92025.95
2023-04-14T12:12:39.050Z,92029.66
2023-04-14T12:17:45.842Z,92032.12
2023-04-14T12:22:52.716Z,92031.91
2023-04-14T12:28:03.449Z,92040.65
2023-04-14T12:33:14.079Z,92030.66
2023-04-14T12:38:21.201Z,92027.70
2023-04-14T12:43:37.061Z,92025.02
2023-04-14T12:48:49.480Z,92029.53
2023-04-14T12:54:00.860Z,92019.59
2023-04-14T12:59:07.932Z,92022.90
2023-04-14T13:04:15.501Z,92014.02
2023-04-14T13:09:22.675Z,92012.13
2023-04-14T13:14:30.001Z,92015.69
2023-04-14T13:19:37.737Z,92006.11
2023-04-14T13:24:44.957Z,92005.33
2023-04-14T13:29:52.036Z,92010.56
2023-04-14T13:34:58.807Z,92011.09
2023-04-14T13:40:06.720Z,92020.28
2023-04-14T13:45:13.581Z,92020.11
2023-04-14T13:50:22.913Z,92017.72
2023-04-14T13:55:30.412Z,92037.17
2023-04-14T14:00:37.192Z,92017.86
2023-04-14T14:05:43.974Z,92018.92
2023-04-14T14:10:51.017Z,92022.01
2023-04-14T14:15:58.475Z,92020.00
2023-04-14T14:21:06.292Z,92020.28
2023-04-14T14:26:14.390Z,92018.97
2023-04-14T14:31:21.359Z,92021.14
2023-04-14T14:36:28.828Z,92023.08
2023-04-14T14:41:35.881Z,92026.89
2023-04-14T14:46:43.272Z,92020.31
2023-04-14T14:51:51.105Z,92023.04
2023-04-14T14:56:58.486Z,92008.51
2023-04-14T15:02:05.734Z,92012.08
2023-04-14T15:07:14.117Z,92022.23
2023-04-14T15:12:21.229Z,92019.94
2023-04-14T15:17:28.360Z,92023.17
2023-04-14T15:22:36.274Z,92027.40
2023-04-14T15:27:43.280Z,92030.17
2023-04-14T15:32:50.473Z,92035.04
2023-04-14T15:37:57.480Z,92034.26
2023-04-14T15:43:04.692Z,92035.02
2023-04-14T15:48:12.261Z,92032.34
2023-04-14T15:53:19.023Z,92036.44
2023-04-14T15:58:26.281Z,92048.30
2023-04-14T16:03:33.900Z,92050.83
2023-04-14T16:08:41.317Z,92044.87
2023-04-14T16:13:48.452Z,92046.23
2023-04-14T16:18:55.294Z,92055.52
2023-04-14T16:24:02.922Z,92058.74
2023-04-14T16:29:12.428Z,92058.78
2023-04-14T16:34:20.805Z,92052.34
2023-04-14T16:39:29.469Z,92054.36
2023-04-14T16:44:37.277Z,92048.75
2023-04-14T16:49:43.968Z,92057.95
2023-04-14T16:54:51.035Z,92050.23
2023-04-14T16:59:57.902Z,92044.65
2023-04-14T17:05:06.041Z,92050.37
2023-04-14T17:10:13.872Z,92046.42
2023-04-14T17:15:20.942Z,92054.18
2023-04-14T17:20:28.606Z,92059.27
2023-04-14T17:25:38.396Z,92055.84
2023-04-14T17:30:45.892Z,92058.74
2023-04-14T17:35:52.696Z,92056.69
2023-04-14T17:40:59.806Z,92061.22
2023-04-14T17:46:07.780Z,92067.48
2023-04-14T17:51:14.731Z,92056.45
2023-04-14T17:56:22.771Z,92051.72
2023-04-14T18:01:29.696Z,92057.23
2023-04-14T18:06:37.545Z,92061.00
2023-04-14T18:11:44.611Z,92067.26
2023-04-14T18:16:51.605Z,92074.84
2023-04-14T18:21:58.466Z,92070.82
2023-04-14T18:32:15.753Z,92074.33
2023-04-14T18:37:22.671Z,92077.66
2023-04-14T18:42:31.164Z,92070.47
2023-04-14T18:47:38.572Z,92073.81
2023-04-14T18:52:45.352Z,92071.31
2023-04-14T18:57:53.300Z,92069.67
2023-04-14T19:03:00.981Z,92070.62
2023-04-14T19:08:08.209Z,92065.75
2023-04-14T19:13:15.616Z,92065.75
2023-04-14T19:18:22.688Z,92063.12
2023-04-14T19:23:31.019Z,92067.14
2023-04-14T19:28:39.437Z,92060.39
2023-04-14T19:33:46.560Z,92055.16
2023-04-14T19:38:53.909Z,92056.77
2023-04-14T19:44:03.356Z,92048.27
2023-04-14T19:49:11.677Z,92047.50
2023-04-14T19:54:18.394Z,92055.59
2023-04-14T19:59:25.491Z,92044.81
2023-04-14T20:04:32.974Z,92038.27
2023-04-14T20:09:41.674Z,92039.42
2023-04-14T20:14:48.545Z,92034.63
2023-04-14T20:19:56.052Z,92030.98
2023-04-14T20:25:03.228Z,92027.30
2023-04-14T20:30:15.738Z,92019.94
2023-04-14T20:35:22.894Z,92015.51
2023-04-14T20:40:30.504Z,92018.41
2023-04-14T20:45:38.915Z,92014.13
2023-04-14T20:50:47.693Z,92029.86
2023-04-14T20:55:56.306Z,92028.33
2023-04-14T21:01:04.110Z,92028.11
2023-04-14T21:06:12.282Z,92024.25
2023-04-14T21:11:19.844Z,92026.32
2023-04-14T21:16:27.794Z,92038.08
2023-04-14T21:21:34.858Z,92041.02
2023-04-14T21:26:42.276Z,92036.28
2023-04-14T21:31:49.095Z,92039.68
2023-04-14T21:36:58.545Z,92043.59
2023-04-14T21:42:05.420Z,92044.11
2023-04-14T21:47:12.608Z,92048.05
2023-04-14T21:52:20.179Z,92048.30
2023-04-14T21:57:48.620Z,92042.56
2023-04-14T22:02:35.585Z,92030.47
2023-04-14T22:07:43.275Z,92034.30
2023-04-14T22:12:51.273Z,92036.23
2023-04-14T22:17:59.190Z,92043.85
2023-04-14T22:23:06.780Z,92042.58
2023-04-14T22:28:13.953Z,92038.64
2023-04-14T22:33:21.251Z,92045.67
2023-04-14T22:38:28.296Z,92041.94
2023-04-14T22:43:35.184Z,92045.69
2023-04-14T22:48:42.078Z,92049.13
2023-04-14T22:53:49.141Z,92046.73
2023-04-14T22:58:58.562Z,92044.33
2023-04-14T23:04:05.857Z,92044.11
2023-04-14T23:09:12.907Z,92044.64
2023-04-14T23:14:19.633Z,92049.30
2023-04-14T23:19:27.065Z,92053.00
2023-04-14T23:24:34.490Z,92047.98
2023-04-14T23:29:42.198Z,92054.72
2023-04-14T23:34:48.925Z,92046.48
2023-04-14T23:39:56.172Z,92050.72
2023-04-14T23:45:04.183Z,92053.04
2023-04-14T23:50:11.353Z,92046.44
2023-04-14T23:55:19.013Z,92039.95
